sensor_id;sensor_type;location;lat;lon;timestamp;P1;durP1;ratioP1;P2;durP2;ratioP2
66619;SDS011;53484;51.356;6.732;2023-02-25T00:01:55;18.77;;;3.40;;
66619;SDS011;53484;51.356;6.732;2023-02-25T00:04:21;16.83;;;3.00;;
66619;SDS011;53484;51.356;6.732;2023-02-25T00:06:48;22.58;;;2.72;;
66619;SDS011;53484;51.356;6.732;2023-02-25T00:09:14;24.63;;;4.68;;
66619;SDS011;53484;51.356;6.732;2023-02-25T00:11:40;17.17;;;2.75;;
66619;SDS011;53484;51.356;6.732;2023-02-25T00:14:07;8.37;;;2.20;;
66619;SDS011;53484;51.356;6.732;2023-02-25T00:16:34;12.05;;;2.20;;
66619;SDS011;53484;51.356;6.732;2023-02-25T00:19:01;16.00;;;3.00;;
66619;SDS011;53484;51.356;6.732;2023-02-25T00:21:28;8.93;;;1.90;;
66619;SDS011;53484;51.356;6.732;2023-02-25T00:23:54;17.00;;;2.90;;
66619;SDS011;53484;51.356;6.732;2023-02-25T00:26:21;21.23;;;3.00;;
66619;SDS011;53484;51.356;6.732;2023-02-25T00:28:48;18.52;;;3.00;;
66619;SDS011;53484;51.356;6.732;2023-02-25T00:31:15;12.30;;;1.83;;
66619;SDS011;53484;51.356;6.732;2023-02-25T00:33:42;14.25;;;2.15;;
66619;SDS011;53484;51.356;6.732;2023-02-25T00:36:11;17.98;;;3.95;;
66619;SDS011;53484;51.356;6.732;2023-02-25T00:38:37;15.27;;;2.77;;
66619;SDS011;53484;51.356;6.732;2023-02-25T00:41:04;18.77;;;3.25;;
66619;SDS011;53484;51.356;6.732;2023-02-25T00:43:35;20.48;;;2.90;;
66619;SDS011;53484;51.356;6.732;2023-02-25T00:46:01;8.45;;;2.33;;
66619;SDS011;53484;51.356;6.732;2023-02-25T00:48:28;15.45;;;2.50;;
66619;SDS011;53484;51.356;6.732;2023-02-25T00:50:54;13.40;;;2.40;;
66619;SDS011;53484;51.356;6.732;2023-02-25T00:53:22;12.63;;;2.80;;
66619;SDS011;53484;51.356;6.732;2023-02-25T00:55:56;10.30;;;2.28;;
66619;SDS011;53484;51.356;6.732;2023-02-25T00:58:22;14.27;;;2.55;;
66619;SDS011;53484;51.356;6.732;2023-02-25T01:00:49;13.73;;;2.38;;
66619;SDS011;53484;51.356;6.732;2023-02-25T01:03:15;19.30;;;2.87;;
66619;SDS011;53484;51.356;6.732;2023-02-25T01:05:41;22.60;;;2.95;;
66619;SDS011;53484;51.356;6.732;2023-02-25T01:08:08;11.30;;;3.03;;
66619;SDS011;53484;51.356;6.732;2023-02-25T01:10:36;13.98;;;2.60;;
66619;SDS011;53484;51.356;6.732;2023-02-25T01:13:02;13.48;;;2.58;;
66619;SDS011;53484;51.356;6.732;2023-02-25T01:15:28;8.20;;;2.50;;
66619;SDS011;53484;51.356;6.732;2023-02-25T01:17:55;9.73;;;1.85;;
66619;SDS011;53484;51.356;6.732;2023-02-25T01:20:21;15.07;;;2.70;;
66619;SDS011;53484;51.356;6.732;2023-02-25T01:22:48;21.65;;;3.80;;
66619;SDS011;53484;51.356;6.732;2023-02-25T01:25:14;7.82;;;1.85;;
66619;SDS011;53484;51.356;6.732;2023-02-25T01:27:43;13.00;;;2.20;;
66619;SDS011;53484;51.356;6.732;2023-02-25T01:30:09;12.25;;;2.15;;
66619;SDS011;53484;51.356;6.732;2023-02-25T01:32:36;20.25;;;3.10;;
66619;SDS011;53484;51.356;6.732;2023-02-25T01:35:02;13.65;;;2.97;;
66619;SDS011;53484;51.356;6.732;2023-02-25T01:37:29;12.05;;;2.25;;
66619;SDS011;53484;51.356;6.732;2023-02-25T01:39:55;15.67;;;3.10;;
66619;SDS011;53484;51.356;6.732;2023-02-25T01:42:22;27.98;;;3.70;;
66619;SDS011;53484;51.356;6.732;2023-02-25T01:47:35;17.90;;;2.70;;
66619;SDS011;53484;51.356;6.732;2023-02-25T01:50:02;19.23;;;3.22;;
66619;SDS011;53484;51.356;6.732;2023-02-25T01:52:29;15.90;;;3.07;;
66619;SDS011;53484;51.356;6.732;2023-02-25T01:54:56;16.08;;;2.72;;
66619;SDS011;53484;51.356;6.732;2023-02-25T01:57:22;11.65;;;2.10;;
66619;SDS011;53484;51.356;6.732;2023-02-25T01:59:50;13.38;;;2.00;;
66619;SDS011;53484;51.356;6.732;2023-02-25T02:02:17;14.73;;;1.98;;
66619;SDS011;53484;51.356;6.732;2023-02-25T02:04:46;20.63;;;2.10;;
66619;SDS011;53484;51.356;6.732;2023-02-25T02:07:14;16.38;;;2.78;;
66619;SDS011;53484;51.356;6.732;2023-02-25T02:09:40;16.10;;;2.80;;
66619;SDS011;53484;51.356;6.732;2023-02-25T02:12:20;16.05;;;2.88;;
66619;SDS011;53484;51.356;6.732;2023-02-25T02:14:46;19.02;;;3.78;;
66619;SDS011;53484;51.356;6.732;2023-02-25T02:17:15;15.10;;;2.60;;
66619;SDS011;53484;51.356;6.732;2023-02-25T02:19:52;20.83;;;2.58;;
66619;SDS011;53484;51.356;6.732;2023-02-25T02:22:20;17.40;;;3.60;;
66619;SDS011;53484;51.356;6.732;2023-02-25T02:24:57;19.05;;;3.67;;
66619;SDS011;53484;51.356;6.732;2023-02-25T02:27:29;17.75;;;2.67;;
66619;SDS011;53484;51.356;6.732;2023-02-25T02:32:49;11.10;;;2.53;;
66619;SDS011;53484;51.356;6.732;2023-02-25T02:35:19;11.35;;;2.47;;
66619;SDS011;53484;51.356;6.732;2023-02-25T02:37:48;22.98;;;5.55;;
66619;SDS011;53484;51.356;6.732;2023-02-25T02:40:18;12.88;;;2.97;;
66619;SDS011;53484;51.356;6.732;2023-02-25T02:42:50;15.37;;;2.50;;
66619;SDS011;53484;51.356;6.732;2023-02-25T02:45:19;7.80;;;1.88;;
66619;SDS011;53484;51.356;6.732;2023-02-25T02:47:50;17.20;;;2.60;;
66619;SDS011;53484;51.356;6.732;2023-02-25T02:50:19;16.73;;;2.50;;
66619;SDS011;53484;51.356;6.732;2023-02-25T02:52:49;20.83;;;3.30;;
66619;SDS011;53484;51.356;6.732;2023-02-25T02:55:17;11.87;;;2.53;;
66619;SDS011;53484;51.356;6.732;2023-02-25T02:57:46;12.52;;;2.40;;
66619;SDS011;53484;51.356;6.732;2023-02-25T03:00:13;23.17;;;3.05;;
66619;SDS011;53484;51.356;6.732;2023-02-25T03:02:43;30.20;;;3.38;;
66619;SDS011;53484;51.356;6.732;2023-02-25T03:05:14;16.70;;;2.70;;
66619;SDS011;53484;51.356;6.732;2023-02-25T03:07:42;8.83;;;1.93;;
66619;SDS011;53484;51.356;6.732;2023-02-25T03:10:11;12.90;;;2.80;;
66619;SDS011;53484;51.356;6.732;2023-02-25T03:12:39;25.45;;;2.35;;
66619;SDS011;53484;51.356;6.732;2023-02-25T03:15:05;16.55;;;2.60;;
66619;SDS011;53484;51.356;6.732;2023-02-25T03:17:35;13.35;;;2.35;;
66619;SDS011;53484;51.356;6.732;2023-02-25T03:20:05;20.80;;;3.23;;
66619;SDS011;53484;51.356;6.732;2023-02-25T03:22:35;26.30;;;4.45;;
66619;SDS011;53484;51.356;6.732;2023-02-25T03:25:04;29.88;;;5.22;;
66619;SDS011;53484;51.356;6.732;2023-02-25T03:27:34;27.08;;;3.97;;
66619;SDS011;53484;51.356;6.732;2023-02-25T03:30:03;19.75;;;3.13;;
66619;SDS011;53484;51.356;6.732;2023-02-25T03:32:30;15.43;;;3.23;;
66619;SDS011;53484;51.356;6.732;2023-02-25T03:34:57;17.83;;;3.17;;
66619;SDS011;53484;51.356;6.732;2023-02-25T03:37:26;26.73;;;5.07;;
66619;SDS011;53484;51.356;6.732;2023-02-25T03:39:56;16.65;;;3.03;;
66619;SDS011;53484;51.356;6.732;2023-02-25T03:42:24;23.00;;;3.10;;
66619;SDS011;53484;51.356;6.732;2023-02-25T03:44:53;14.73;;;2.30;;
66619;SDS011;53484;51.356;6.732;2023-02-25T03:47:22;16.58;;;2.25;;
66619;SDS011;53484;51.356;6.732;2023-02-25T03:49:52;15.98;;;2.80;;
66619;SDS011;53484;51.356;6.732;2023-02-25T03:52:21;16.77;;;2.50;;
66619;SDS011;53484;51.356;6.732;2023-02-25T03:54:49;14.13;;;2.20;;
66619;SDS011;53484;51.356;6.732;2023-02-25T03:57:17;14.00;;;2.60;;
66619;SDS011;53484;51.356;6.732;2023-02-25T03:59:44;14.23;;;2.30;;
66619;SDS011;53484;51.356;6.732;2023-02-25T04:02:10;24.58;;;3.10;;
66619;SDS011;53484;51.356;6.732;2023-02-25T04:04:38;19.20;;;1.85;;
66619;SDS011;53484;51.356;6.732;2023-02-25T04:07:04;16.10;;;3.25;;
66619;SDS011;53484;51.356;6.732;2023-02-25T04:09:30;16.90;;;3.30;;
66619;SDS011;53484;51.356;6.732;2023-02-25T04:11:57;17.38;;;3.13;;
66619;SDS011;53484;51.356;6.732;2023-02-25T04:14:24;22.25;;;4.07;;
66619;SDS011;53484;51.356;6.732;2023-02-25T04:16:50;13.10;;;3.08;;
66619;SDS011;53484;51.356;6.732;2023-02-25T04:19:17;19.70;;;3.75;;
66619;SDS011;53484;51.356;6.732;2023-02-25T04:21:43;13.07;;;2.63;;
66619;SDS011;53484;51.356;6.732;2023-02-25T04:24:09;14.77;;;3.22;;
66619;SDS011;53484;51.356;6.732;2023-02-25T04:26:36;14.35;;;3.35;;
66619;SDS011;53484;51.356;6.732;2023-02-25T04:29:02;25.30;;;4.45;;
66619;SDS011;53484;51.356;6.732;2023-02-25T04:31:30;20.55;;;4.38;;
66619;SDS011;53484;51.356;6.732;2023-02-25T04:33:56;15.60;;;4.47;;
66619;SDS011;53484;51.356;6.732;2023-02-25T04:36:24;15.55;;;4.15;;
66619;SDS011;53484;51.356;6.732;2023-02-25T04:38:51;22.38;;;5.07;;
66619;SDS011;53484;51.356;6.732;2023-02-25T04:41:17;23.40;;;4.13;;
66619;SDS011;53484;51.356;6.732;2023-02-25T04:43:43;21.25;;;4.30;;
66619;SDS011;53484;51.356;6.732;2023-02-25T04:46:10;13.47;;;2.70;;
66619;SDS011;53484;51.356;6.732;2023-02-25T04:48:38;16.30;;;4.20;;
66619;SDS011;53484;51.356;6.732;2023-02-25T04:51:04;16.90;;;3.58;;
66619;SDS011;53484;51.356;6.732;2023-02-25T04:53:31;14.27;;;3.95;;
66619;SDS011;53484;51.356;6.732;2023-02-25T04:56:00;12.13;;;2.35;;
66619;SDS011;53484;51.356;6.732;2023-02-25T04:58:27;19.00;;;4.37;;
66619;SDS011;53484;51.356;6.732;2023-02-25T05:00:53;19.85;;;3.00;;
66619;SDS011;53484;51.356;6.732;2023-02-25T05:03:21;17.98;;;3.40;;
66619;SDS011;53484;51.356;6.732;2023-02-25T05:05:51;15.15;;;3.60;;
66619;SDS011;53484;51.356;6.732;2023-02-25T05:08:17;30.08;;;7.22;;
66619;SDS011;53484;51.356;6.732;2023-02-25T05:10:43;26.10;;;5.37;;
66619;SDS011;53484;51.356;6.732;2023-02-25T05:13:09;17.33;;;3.22;;
66619;SDS011;53484;51.356;6.732;2023-02-25T05:15:36;24.50;;;4.40;;
66619;SDS011;53484;51.356;6.732;2023-02-25T05:18:02;20.83;;;2.83;;
66619;SDS011;53484;51.356;6.732;2023-02-25T05:20:28;12.75;;;2.55;;
66619;SDS011;53484;51.356;6.732;2023-02-25T05:22:56;14.50;;;2.47;;
66619;SDS011;53484;51.356;6.732;2023-02-25T05:25:22;15.68;;;3.08;;
66619;SDS011;53484;51.356;6.732;2023-02-25T05:27:49;23.15;;;5.03;;
66619;SDS011;53484;51.356;6.732;2023-02-25T05:30:15;26.13;;;5.65;;
66619;SDS011;53484;51.356;6.732;2023-02-25T05:32:43;20.90;;;4.93;;
66619;SDS011;53484;51.356;6.732;2023-02-25T05:35:09;20.60;;;4.57;;
66619;SDS011;53484;51.356;6.732;2023-02-25T05:37:36;18.95;;;3.50;;
66619;SDS011;53484;51.356;6.732;2023-02-25T05:40:04;17.20;;;3.15;;
66619;SDS011;53484;51.356;6.732;2023-02-25T05:42:33;16.45;;;3.25;;
66619;SDS011;53484;51.356;6.732;2023-02-25T05:44:59;10.60;;;2.78;;
66619;SDS011;53484;51.356;6.732;2023-02-25T05:47:25;16.47;;;2.93;;
66619;SDS011;53484;51.356;6.732;2023-02-25T05:49:52;17.92;;;3.67;;
66619;SDS011;53484;51.356;6.732;2023-02-25T05:52:18;14.27;;;3.63;;
66619;SDS011;53484;51.356;6.732;2023-02-25T05:54:44;18.75;;;3.85;;
66619;SDS011;53484;51.356;6.732;2023-02-25T05:57:13;23.70;;;4.03;;
66619;SDS011;53484;51.356;6.732;2023-02-25T05:59:40;19.52;;;3.38;;
66619;SDS011;53484;51.356;6.732;2023-02-25T06:02:06;14.10;;;2.92;;
66619;SDS011;53484;51.356;6.732;2023-02-25T06:04:32;20.27;;;3.50;;
66619;SDS011;53484;51.356;6.732;2023-02-25T06:06:58;17.98;;;3.05;;
66619;SDS011;53484;51.356;6.732;2023-02-25T06:09:27;14.90;;;3.27;;
66619;SDS011;53484;51.356;6.732;2023-02-25T06:11:53;25.15;;;3.90;;
66619;SDS011;53484;51.356;6.732;2023-02-25T06:14:21;13.18;;;2.45;;
66619;SDS011;53484;51.356;6.732;2023-02-25T06:16:47;15.32;;;3.42;;
66619;SDS011;53484;51.356;6.732;2023-02-25T06:19:15;17.20;;;3.22;;
66619;SDS011;53484;51.356;6.732;2023-02-25T06:21:41;26.77;;;5.80;;
66619;SDS011;53484;51.356;6.732;2023-02-25T06:24:08;14.02;;;4.40;;
66619;SDS011;53484;51.356;6.732;2023-02-25T06:26:35;20.58;;;4.22;;
66619;SDS011;53484;51.356;6.732;2023-02-25T06:29:09;16.13;;;3.40;;
66619;SDS011;53484;51.356;6.732;2023-02-25T06:31:37;17.50;;;3.83;;
66619;SDS011;53484;51.356;6.732;2023-02-25T06:34:04;26.40;;;3.90;;
66619;SDS011;53484;51.356;6.732;2023-02-25T06:36:31;13.85;;;2.65;;
66619;SDS011;53484;51.356;6.732;2023-02-25T06:38:58;28.17;;;5.93;;
66619;SDS011;53484;51.356;6.732;2023-02-25T06:41:24;21.45;;;3.20;;
66619;SDS011;53484;51.356;6.732;2023-02-25T06:43:51;20.42;;;3.60;;
66619;SDS011;53484;51.356;6.732;2023-02-25T06:46:18;17.07;;;2.67;;
66619;SDS011;53484;51.356;6.732;2023-02-25T06:48:46;10.90;;;2.22;;
66619;SDS011;53484;51.356;6.732;2023-02-25T06:51:13;12.55;;;2.80;;
66619;SDS011;53484;51.356;6.732;2023-02-25T06:53:40;9.68;;;2.60;;
66619;SDS011;53484;51.356;6.732;2023-02-25T06:56:07;16.52;;;4.50;;
66619;SDS011;53484;51.356;6.732;2023-02-25T06:58:35;18.13;;;3.37;;
66619;SDS011;53484;51.356;6.732;2023-02-25T07:01:04;13.52;;;2.70;;
66619;SDS011;53484;51.356;6.732;2023-02-25T07:03:30;29.55;;;4.00;;
66619;SDS011;53484;51.356;6.732;2023-02-25T07:05:58;18.08;;;2.70;;
66619;SDS011;53484;51.356;6.732;2023-02-25T07:08:24;16.85;;;3.85;;
66619;SDS011;53484;51.356;6.732;2023-02-25T07:10:51;22.93;;;5.57;;
66619;SDS011;53484;51.356;6.732;2023-02-25T07:13:17;22.50;;;4.85;;
66619;SDS011;53484;51.356;6.732;2023-02-25T07:15:43;21.95;;;4.68;;
66619;SDS011;53484;51.356;6.732;2023-02-25T07:18:10;19.33;;;4.55;;
66619;SDS011;53484;51.356;6.732;2023-02-25T07:20:36;16.73;;;4.05;;
66619;SDS011;53484;51.356;6.732;2023-02-25T07:23:05;21.83;;;4.60;;
66619;SDS011;53484;51.356;6.732;2023-02-25T07:25:31;21.35;;;4.07;;
66619;SDS011;53484;51.356;6.732;2023-02-25T07:27:57;14.68;;;2.75;;
66619;SDS011;53484;51.356;6.732;2023-02-25T07:30:24;19.70;;;3.88;;
66619;SDS011;53484;51.356;6.732;2023-02-25T07:32:50;19.95;;;4.30;;
66619;SDS011;53484;51.356;6.732;2023-02-25T07:35:16;20.43;;;4.20;;
66619;SDS011;53484;51.356;6.732;2023-02-25T07:37:42;21.08;;;4.45;;
66619;SDS011;53484;51.356;6.732;2023-02-25T07:40:11;27.05;;;5.63;;
66619;SDS011;53484;51.356;6.732;2023-02-25T07:42:38;19.42;;;3.10;;
66619;SDS011;53484;51.356;6.732;2023-02-25T07:45:05;20.10;;;3.33;;
66619;SDS011;53484;51.356;6.732;2023-02-25T07:47:32;30.27;;;5.20;;
66619;SDS011;53484;51.356;6.732;2023-02-25T07:49:58;39.15;;;8.77;;
66619;SDS011;53484;51.356;6.732;2023-02-25T07:52:24;26.65;;;6.95;;
66619;SDS011;53484;51.356;6.732;2023-02-25T07:54:50;27.83;;;6.22;;
66619;SDS011;53484;51.356;6.732;2023-02-25T07:57:18;38.60;;;7.80;;
66619;SDS011;53484;51.356;6.732;2023-02-25T07:59:44;35.43;;;6.83;;
66619;SDS011;53484;51.356;6.732;2023-02-25T08:02:11;29.25;;;6.68;;
66619;SDS011;53484;51.356;6.732;2023-02-25T08:04:37;35.67;;;6.72;;
66619;SDS011;53484;51.356;6.732;2023-02-25T08:07:03;37.38;;;7.65;;
66619;SDS011;53484;51.356;6.732;2023-02-25T08:09:30;19.00;;;4.95;;
66619;SDS011;53484;51.356;6.732;2023-02-25T08:11:57;29.50;;;6.07;;
66619;SDS011;53484;51.356;6.732;2023-02-25T08:14:25;29.52;;;6.40;;
66619;SDS011;53484;51.356;6.732;2023-02-25T08:16:54;23.92;;;4.38;;
66619;SDS011;53484;51.356;6.732;2023-02-25T08:19:20;21.45;;;6.03;;
66619;SDS011;53484;51.356;6.732;2023-02-25T08:21:46;20.13;;;6.28;;
66619;SDS011;53484;51.356;6.732;2023-02-25T08:24:13;26.93;;;5.73;;
66619;SDS011;53484;51.356;6.732;2023-02-25T08:26:39;20.42;;;4.35;;
66619;SDS011;53484;51.356;6.732;2023-02-25T08:29:06;11.10;;;1.80;;
66619;SDS011;53484;51.356;6.732;2023-02-25T08:31:33;26.80;;;3.80;;
66619;SDS011;53484;51.356;6.732;2023-02-25T08:34:00;24.73;;;3.15;;
66619;SDS011;53484;51.356;6.732;2023-02-25T08:36:27;13.27;;;2.50;;
66619;SDS011;53484;51.356;6.732;2023-02-25T08:38:54;12.57;;;2.63;;
66619;SDS011;53484;51.356;6.732;2023-02-25T08:41:23;16.05;;;2.13;;
66619;SDS011;53484;51.356;6.732;2023-02-25T08:43:50;16.63;;;2.42;;
66619;SDS011;53484;51.356;6.732;2023-02-25T08:46:18;16.67;;;2.95;;
66619;SDS011;53484;51.356;6.732;2023-02-25T08:48:47;18.63;;;3.07;;
66619;SDS011;53484;51.356;6.732;2023-02-25T08:51:13;12.15;;;2.05;;
66619;SDS011;53484;51.356;6.732;2023-02-25T08:53:39;26.35;;;2.38;;
66619;SDS011;53484;51.356;6.732;2023-02-25T08:56:06;21.60;;;2.53;;
66619;SDS011;53484;51.356;6.732;2023-02-25T08:58:33;14.27;;;2.50;;
66619;SDS011;53484;51.356;6.732;2023-02-25T09:00:59;20.83;;;2.90;;
66619;SDS011;53484;51.356;6.732;2023-02-25T09:03:25;18.80;;;3.25;;
66619;SDS011;53484;51.356;6.732;2023-02-25T09:05:53;22.95;;;4.25;;
66619;SDS011;53484;51.356;6.732;2023-02-25T09:08:20;21.70;;;5.13;;
66619;SDS011;53484;51.356;6.732;2023-02-25T09:10:46;24.98;;;4.78;;
66619;SDS011;53484;51.356;6.732;2023-02-25T09:13:13;20.20;;;5.43;;
66619;SDS011;53484;51.356;6.732;2023-02-25T09:15:39;11.75;;;3.05;;
66619;SDS011;53484;51.356;6.732;2023-02-25T09:18:05;19.45;;;3.83;;
66619;SDS011;53484;51.356;6.732;2023-02-25T09:20:32;14.77;;;2.03;;
66619;SDS011;53484;51.356;6.732;2023-02-25T09:23:00;12.70;;;2.33;;
66619;SDS011;53484;51.356;6.732;2023-02-25T09:25:26;13.33;;;1.53;;
66619;SDS011;53484;51.356;6.732;2023-02-25T09:27:53;14.23;;;1.80;;
66619;SDS011;53484;51.356;6.732;2023-02-25T09:30:19;12.10;;;2.38;;
66619;SDS011;53484;51.356;6.732;2023-02-25T09:32:45;17.20;;;2.38;;
66619;SDS011;53484;51.356;6.732;2023-02-25T09:35:12;11.60;;;1.95;;
66619;SDS011;53484;51.356;6.732;2023-02-25T09:37:38;13.63;;;1.60;;
66619;SDS011;53484;51.356;6.732;2023-02-25T09:40:06;10.10;;;1.75;;
66619;SDS011;53484;51.356;6.732;2023-02-25T09:42:39;14.80;;;2.70;;
66619;SDS011;53484;51.356;6.732;2023-02-25T09:45:08;12.45;;;2.00;;
66619;SDS011;53484;51.356;6.732;2023-02-25T09:47:39;13.73;;;2.40;;
66619;SDS011;53484;51.356;6.732;2023-02-25T09:50:11;11.10;;;1.87;;
66619;SDS011;53484;51.356;6.732;2023-02-25T09:52:39;25.67;;;8.77;;
66619;SDS011;53484;51.356;6.732;2023-02-25T09:55:14;15.68;;;3.28;;
66619;SDS011;53484;51.356;6.732;2023-02-25T09:57:41;7.75;;;2.05;;
66619;SDS011;53484;51.356;6.732;2023-02-25T10:00:13;8.52;;;2.00;;
66619;SDS011;53484;51.356;6.732;2023-02-25T10:02:43;12.97;;;2.90;;
66619;SDS011;53484;51.356;6.732;2023-02-25T10:05:15;17.67;;;5.90;;
66619;SDS011;53484;51.356;6.732;2023-02-25T10:07:49;16.58;;;5.22;;
66619;SDS011;53484;51.356;6.732;2023-02-25T10:10:20;11.25;;;3.70;;
66619;SDS011;53484;51.356;6.732;2023-02-25T10:12:49;14.02;;;3.40;;
66619;SDS011;53484;51.356;6.732;2023-02-25T10:15:21;15.70;;;3.60;;
66619;SDS011;53484;51.356;6.732;2023-02-25T10:17:53;14.50;;;2.63;;
66619;SDS011;53484;51.356;6.732;2023-02-25T10:23:12;8.38;;;1.50;;
66619;SDS011;53484;51.356;6.732;2023-02-25T10:25:44;6.40;;;1.38;;
66619;SDS011;53484;51.356;6.732;2023-02-25T10:28:15;4.30;;;0.70;;
66619;SDS011;53484;51.356;6.732;2023-02-25T10:30:45;6.97;;;1.50;;
66619;SDS011;53484;51.356;6.732;2023-02-25T10:33:15;6.13;;;0.85;;
66619;SDS011;53484;51.356;6.732;2023-02-25T10:35:41;4.88;;;1.30;;
66619;SDS011;53484;51.356;6.732;2023-02-25T10:38:08;7.53;;;0.90;;
66619;SDS011;53484;51.356;6.732;2023-02-25T10:40:34;6.27;;;0.93;;
66619;SDS011;53484;51.356;6.732;2023-02-25T10:43:08;4.10;;;1.38;;
66619;SDS011;53484;51.356;6.732;2023-02-25T10:45:35;6.38;;;1.10;;
66619;SDS011;53484;51.356;6.732;2023-02-25T10:48:02;7.72;;;1.15;;
66619;SDS011;53484;51.356;6.732;2023-02-25T10:50:30;4.60;;;0.98;;
66619;SDS011;53484;51.356;6.732;2023-02-25T10:52:58;6.77;;;1.37;;
66619;SDS011;53484;51.356;6.732;2023-02-25T10:55:26;7.57;;;1.50;;
66619;SDS011;53484;51.356;6.732;2023-02-25T10:57:53;9.00;;;1.90;;
66619;SDS011;53484;51.356;6.732;2023-02-25T11:00:23;10.02;;;2.38;;
66619;SDS011;53484;51.356;6.732;2023-02-25T11:02:51;29.30;;;3.80;;
66619;SDS011;53484;51.356;6.732;2023-02-25T11:05:34;12.47;;;3.67;;
66619;SDS011;53484;51.356;6.732;2023-02-25T11:08:01;11.25;;;3.60;;
66619;SDS011;53484;51.356;6.732;2023-02-25T11:10:31;60.05;;;5.82;;
66619;SDS011;53484;51.356;6.732;2023-02-25T11:12:58;9.68;;;3.03;;
66619;SDS011;53484;51.356;6.732;2023-02-25T11:15:29;6.30;;;2.10;;
66619;SDS011;53484;51.356;6.732;2023-02-25T11:18:01;6.17;;;1.70;;
66619;SDS011;53484;51.356;6.732;2023-02-25T11:20:29;10.68;;;2.80;;
66619;SDS011;53484;51.356;6.732;2023-02-25T11:22:57;8.38;;;1.80;;
66619;SDS011;53484;51.356;6.732;2023-02-25T11:25:29;7.90;;;2.10;;
66619;SDS011;53484;51.356;6.732;2023-02-25T11:27:57;6.85;;;1.27;;
66619;SDS011;53484;51.356;6.732;2023-02-25T11:30:25;9.17;;;2.10;;
66619;SDS011;53484;51.356;6.732;2023-02-25T11:32:56;8.25;;;2.20;;
66619;SDS011;53484;51.356;6.732;2023-02-25T11:35:24;9.40;;;2.05;;
66619;SDS011;53484;51.356;6.732;2023-02-25T11:37:54;8.25;;;2.47;;
66619;SDS011;53484;51.356;6.732;2023-02-25T11:40:23;6.45;;;1.60;;
66619;SDS011;53484;51.356;6.732;2023-02-25T11:42:59;12.53;;;2.17;;
66619;SDS011;53484;51.356;6.732;2023-02-25T11:45:26;12.57;;;2.42;;
66619;SDS011;53484;51.356;6.732;2023-02-25T11:47:53;13.85;;;2.63;;
66619;SDS011;53484;51.356;6.732;2023-02-25T11:50:22;8.27;;;1.80;;
66619;SDS011;53484;51.356;6.732;2023-02-25T11:52:52;17.08;;;6.32;;
66619;SDS011;53484;51.356;6.732;2023-02-25T11:55:23;10.13;;;3.40;;
66619;SDS011;53484;51.356;6.732;2023-02-25T11:57:59;6.97;;;1.10;;
66619;SDS011;53484;51.356;6.732;2023-02-25T12:00:29;8.25;;;1.85;;
66619;SDS011;53484;51.356;6.732;2023-02-25T12:03:02;9.52;;;2.03;;
66619;SDS011;53484;51.356;6.732;2023-02-25T12:05:44;5.40;;;1.90;;
66619;SDS011;53484;51.356;6.732;2023-02-25T12:14:07;6.63;;;1.60;;
66619;SDS011;53484;51.356;6.732;2023-02-25T12:16:40;10.63;;;1.70;;
66619;SDS011;53484;51.356;6.732;2023-02-25T12:19:12;5.97;;;1.20;;
66619;SDS011;53484;51.356;6.732;2023-02-25T12:22:10;5.33;;;1.30;;
66619;SDS011;53484;51.356;6.732;2023-02-25T12:24:47;8.18;;;1.58;;
66619;SDS011;53484;51.356;6.732;2023-02-25T12:27:30;9.07;;;1.60;;
66619;SDS011;53484;51.356;6.732;2023-02-25T12:32:48;8.10;;;1.45;;
66619;SDS011;53484;51.356;6.732;2023-02-25T12:38:13;7.00;;;2.00;;
66619;SDS011;53484;51.356;6.732;2023-02-25T12:40:49;10.02;;;2.60;;
66619;SDS011;53484;51.356;6.732;2023-02-25T12:43:22;8.38;;;1.80;;
66619;SDS011;53484;51.356;6.732;2023-02-25T12:45:55;6.20;;;1.48;;
66619;SDS011;53484;51.356;6.732;2023-02-25T12:48:28;8.37;;;1.17;;
66619;SDS011;53484;51.356;6.732;2023-02-25T12:51:11;11.63;;;2.38;;
66619;SDS011;53484;51.356;6.732;2023-02-25T12:53:44;9.20;;;1.75;;
66619;SDS011;53484;51.356;6.732;2023-02-25T12:56:30;10.88;;;1.73;;
66619;SDS011;53484;51.356;6.732;2023-02-25T12:59:20;8.23;;;1.83;;
66619;SDS011;53484;51.356;6.732;2023-02-25T13:01:57;11.93;;;2.03;;
66619;SDS011;53484;51.356;6.732;2023-02-25T13:04:32;9.52;;;2.65;;
66619;SDS011;53484;51.356;6.732;2023-02-25T13:07:10;10.48;;;2.40;;
66619;SDS011;53484;51.356;6.732;2023-02-25T13:09:49;6.85;;;2.20;;
66619;SDS011;53484;51.356;6.732;2023-02-25T13:12:25;9.65;;;2.20;;
66619;SDS011;53484;51.356;6.732;2023-02-25T13:14:58;7.53;;;2.03;;
66619;SDS011;53484;51.356;6.732;2023-02-25T13:17:36;7.85;;;1.20;;
66619;SDS011;53484;51.356;6.732;2023-02-25T13:20:28;10.60;;;1.60;;
66619;SDS011;53484;51.356;6.732;2023-02-25T13:23:02;8.25;;;1.80;;
66619;SDS011;53484;51.356;6.732;2023-02-25T13:25:40;9.40;;;2.08;;
66619;SDS011;53484;51.356;6.732;2023-02-25T13:28:13;9.73;;;2.10;;
66619;SDS011;53484;51.356;6.732;2023-02-25T13:30:45;10.02;;;1.73;;
66619;SDS011;53484;51.356;6.732;2023-02-25T13:33:18;6.43;;;1.38;;
66619;SDS011;53484;51.356;6.732;2023-02-25T13:35:50;10.60;;;2.05;;
66619;SDS011;53484;51.356;6.732;2023-02-25T13:38:23;9.98;;;2.05;;
66619;SDS011;53484;51.356;6.732;2023-02-25T13:41:17;8.50;;;1.40;;
66619;SDS011;53484;51.356;6.732;2023-02-25T13:43:57;6.80;;;1.83;;
66619;SDS011;53484;51.356;6.732;2023-02-25T13:46:33;7.75;;;1.33;;
66619;SDS011;53484;51.356;6.732;2023-02-25T13:49:03;7.88;;;1.92;;
66619;SDS011;53484;51.356;6.732;2023-02-25T13:54:26;7.57;;;1.33;;
66619;SDS011;53484;51.356;6.732;2023-02-25T13:56:58;6.03;;;1.38;;
66619;SDS011;53484;51.356;6.732;2023-02-25T14:02:20;4.43;;;1.20;;
66619;SDS011;53484;51.356;6.732;2023-02-25T14:04:56;7.43;;;1.00;;
66619;SDS011;53484;51.356;6.732;2023-02-25T14:10:19;6.30;;;1.10;;
66619;SDS011;53484;51.356;6.732;2023-02-25T14:12:51;6.38;;;1.30;;
66619;SDS011;53484;51.356;6.732;2023-02-25T14:15:31;4.97;;;1.45;;
66619;SDS011;53484;51.356;6.732;2023-02-25T14:18:10;5.28;;;1.40;;
66619;SDS011;53484;51.356;6.732;2023-02-25T14:20:45;5.90;;;1.30;;
66619;SDS011;53484;51.356;6.732;2023-02-25T14:23:15;6.43;;;1.42;;
66619;SDS011;53484;51.356;6.732;2023-02-25T14:25:49;4.90;;;0.88;;
66619;SDS011;53484;51.356;6.732;2023-02-25T14:28:25;5.38;;;1.00;;
66619;SDS011;53484;51.356;6.732;2023-02-25T14:30:58;5.28;;;0.85;;
66619;SDS011;53484;51.356;6.732;2023-02-25T14:33:31;8.10;;;1.00;;
66619;SDS011;53484;51.356;6.732;2023-02-25T14:36:05;4.10;;;0.90;;
66619;SDS011;53484;51.356;6.732;2023-02-25T14:38:38;6.40;;;1.40;;
66619;SDS011;53484;51.356;6.732;2023-02-25T14:41:09;5.85;;;1.20;;
66619;SDS011;53484;51.356;6.732;2023-02-25T14:43:39;3.58;;;0.60;;
66619;SDS011;53484;51.356;6.732;2023-02-25T14:46:10;4.13;;;0.67;;
66619;SDS011;53484;51.356;6.732;2023-02-25T14:48:40;5.32;;;0.90;;
66619;SDS011;53484;51.356;6.732;2023-02-25T14:51:18;6.97;;;0.88;;
66619;SDS011;53484;51.356;6.732;2023-02-25T14:53:58;4.47;;;0.75;;
66619;SDS011;53484;51.356;6.732;2023-02-25T14:59:30;4.33;;;0.70;;
66619;SDS011;53484;51.356;6.732;2023-02-25T15:02:03;6.47;;;0.80;;
66619;SDS011;53484;51.356;6.732;2023-02-25T15:04:39;6.72;;;1.20;;
66619;SDS011;53484;51.356;6.732;2023-02-25T15:07:15;4.70;;;0.90;;
66619;SDS011;53484;51.356;6.732;2023-02-25T15:10:02;3.75;;;0.60;;
66619;SDS011;53484;51.356;6.732;2023-02-25T15:15:26;4.75;;;1.02;;
66619;SDS011;53484;51.356;6.732;2023-02-25T15:20:35;4.07;;;0.73;;
66619;SDS011;53484;51.356;6.732;2023-02-25T15:23:04;4.18;;;1.08;;
66619;SDS011;53484;51.356;6.732;2023-02-25T15:28:36;5.30;;;0.90;;
66619;SDS011;53484;51.356;6.732;2023-02-25T15:31:22;5.40;;;1.00;;